Time;durP1;ratioP1;P1;durP2;ratioP2;P2;SDS_P1;SDS_P2;PMS_P1;PMS_P2;Temp;Humidity;BMP_temperature;BMP_pressure;BME280_temperature;BME280_humidity;BME280_pressure;Samples;Min_cycle;Max_cycle;Signal;HPM_P1;HPM_P2
2022/07/05 00:03:11;;;;;;;5.03;2.72;;;13.20;99.90;;;;;;7343036;32;20224;-61
2022/07/05 00:07:18;;;;;;;5.43;2.70;;;13.10;99.90;;;;;;7345487;32;20519;-64
2022/07/05 00:11:34;;;;;;;4.87;2.60;;;13.10;99.90;;;;;;7345369;32;20207;-61
2022/07/05 00:15:38;;;;;;;8.70;2.45;;;13.00;99.90;;;;;;7341241;32;20168;-61
2022/07/05 00:19:41;;;;;;;4.93;2.25;;;13.00;99.90;;;;;;7335915;32;20478;-61
2022/07/05 00:23:42;;;;;;;6.45;2.53;;;13.00;99.90;;;;;;7343469;32;20130;-61
2022/07/05 00:27:45;;;;;;;4.15;2.30;;;13.00;99.90;;;;;;7339728;32;20194;-61
2022/07/05 00:31:47;;;;;;;4.35;2.50;;;12.90;99.90;;;;;;7339170;32;20209;-61
2022/07/05 00:35:49;;;;;;;5.78;2.50;;;12.90;99.90;;;;;;7340597;32;20748;-61
2022/07/05 00:39:51;;;;;;;3.83;2.30;;;12.80;99.90;;;;;;7342183;32;20317;-61
2022/07/05 00:43:54;;;;;;;4.18;2.50;;;12.80;99.90;;;;;;7337850;32;20131;-61
2022/07/05 00:47:56;;;;;;;3.08;2.10;;;12.70;99.90;;;;;;7337277;32;21026;-61
2022/07/05 00:52:02;;;;;;;4.03;2.42;;;12.70;99.90;;;;;;7339523;32;20577;-61
2022/07/05 00:56:23;;;;;;;6.35;2.55;;;12.60;99.90;;;;;;7338729;32;20218;-61
2022/07/05 01:00:25;;;;;;;4.20;2.28;;;12.60;99.90;;;;;;7334683;32;20267;-61
2022/07/05 01:04:26;;;;;;;4.35;2.67;;;12.60;99.90;;;;;;7345951;32;20177;-62
2022/07/05 01:08:29;;;;;;;6.72;2.65;;;12.60;99.90;;;;;;7336177;32;20700;-62
2022/07/05 01:12:31;;;;;;;3.30;2.42;;;12.50;99.90;;;;;;7341695;32;20195;-62
2022/07/05 01:16:33;;;;;;;5.45;2.58;;;12.50;99.90;;;;;;7339382;32;20164;-61
2022/07/05 01:20:36;;;;;;;7.95;2.70;;;12.50;99.90;;;;;;7337266;32;20149;-61
2022/07/05 01:24:38;;;;;;;5.53;2.80;;;12.50;99.90;;;;;;7349041;32;20118;-63
2022/07/05 01:28:40;;;;;;;4.03;2.40;;;12.60;99.90;;;;;;7338954;32;20103;-61
2022/07/05 01:32:42;;;;;;;2.83;2.33;;;12.60;99.90;;;;;;7343262;32;20125;-61
2022/07/05 01:36:44;;;;;;;5.18;2.37;;;12.60;99.90;;;;;;7339206;32;20239;-61
2022/07/05 01:40:50;;;;;;;9.30;2.83;;;12.70;99.90;;;;;;7357322;32;20164;-62
2022/07/05 01:44:52;;;;;;;3.78;2.60;;;12.80;99.90;;;;;;7341354;32;20729;-61
2022/07/05 01:48:57;;;;;;;4.65;2.83;;;12.70;99.90;;;;;;7339866;32;20103;-62
2022/07/05 01:53:02;;;;;;;4.78;2.53;;;12.80;99.90;;;;;;7340680;32;20523;-61
2022/07/05 01:57:06;;;;;;;4.00;2.67;;;12.80;99.90;;;;;;7344926;32;20244;-62
2022/07/05 02:01:08;;;;;;;4.35;2.62;;;12.80;99.90;;;;;;7346573;32;20099;-61
2022/07/05 02:05:10;;;;;;;4.70;2.37;;;12.80;99.90;;;;;;7339604;32;20225;-62
2022/07/05 02:09:12;;;;;;;2.97;2.50;;;12.80;99.90;;;;;;7338410;32;20594;-62
2022/07/05 02:13:14;;;;;;;3.72;2.33;;;12.80;99.90;;;;;;7338163;32;20181;-61
2022/07/05 02:17:16;;;;;;;4.78;2.65;;;12.80;99.90;;;;;;7341651;32;20237;-63
2022/07/05 02:21:18;;;;;;;3.92;2.70;;;12.70;99.90;;;;;;7334886;32;20399;-63
2022/07/05 02:25:20;;;;;;;5.45;2.35;;;12.60;99.90;;;;;;7344205;32;20611;-63
2022/07/05 02:29:22;;;;;;;3.15;2.40;;;12.50;99.90;;;;;;7346018;32;20188;-62
2022/07/05 02:33:24;;;;;;;3.55;2.30;;;12.50;99.90;;;;;;7334809;32;20573;-61
2022/07/05 02:37:27;;;;;;;5.55;2.37;;;12.40;99.90;;;;;;7333454;32;20126;-62
2022/07/05 02:41:28;;;;;;;5.37;2.67;;;12.30;99.90;;;;;;7339490;32;20198;-62
2022/07/05 02:45:30;;;;;;;3.45;2.30;;;12.30;99.90;;;;;;7337216;32;20099;-61
2022/07/05 02:49:32;;;;;;;5.50;2.40;;;12.30;99.90;;;;;;7336631;32;20220;-61
2022/07/05 02:53:34;;;;;;;3.05;2.42;;;12.30;99.90;;;;;;7332615;32;20272;-62
2022/07/05 02:57:38;;;;;;;4.45;2.45;;;12.40;99.90;;;;;;7340888;32;20108;-63
2022/07/05 03:01:40;;;;;;;4.45;2.20;;;12.50;99.90;;;;;;7344650;32;20198;-62
2022/07/05 03:05:42;;;;;;;8.10;2.53;;;12.50;99.90;;;;;;7337898;32;20123;-61
2022/07/05 03:09:44;;;;;;;3.30;2.70;;;12.50;99.90;;;;;;7338591;32;20203;-61
2022/07/05 03:13:47;;;;;;;5.05;2.50;;;12.60;99.90;;;;;;7337555;32;20199;-61
2022/07/05 03:17:49;;;;;;;7.10;2.58;;;12.60;99.90;;;;;;7336605;32;20997;-62
2022/07/05 03:21:51;;;;;;;3.08;2.40;;;12.50;99.90;;;;;;7337343;32;20095;-61
2022/07/05 03:25:53;;;;;;;3.00;2.28;;;12.60;99.90;;;;;;7344958;32;20099;-61
2022/07/05 03:29:54;;;;;;;5.30;2.40;;;12.50;99.90;;;;;;7343051;32;20953;-62
2022/07/05 03:33:56;;;;;;;5.72;2.78;;;12.60;99.90;;;;;;7338633;32;20499;-62
2022/07/05 03:37:58;;;;;;;3.72;2.62;;;12.60;99.90;;;;;;7336447;32;20612;-62
2022/07/05 03:42:00;;;;;;;2.92;2.53;;;12.60;99.90;;;;;;7344476;32;20221;-62
2022/07/05 03:46:02;;;;;;;5.53;2.35;;;12.50;99.90;;;;;;7344286;32;20514;-62
2022/07/05 03:50:04;;;;;;;3.50;2.55;;;12.50;99.90;;;;;;7339645;32;20536;-62
2022/07/05 03:54:06;;;;;;;4.65;2.30;;;12.50;99.90;;;;;;7341395;32;20119;-61
2022/07/05 03:58:08;;;;;;;7.78;2.60;;;12.60;99.90;;;;;;7342713;32;20198;-62
2022/07/05 04:02:10;;;;;;;4.82;2.47;;;12.60;99.90;;;;;;7345217;32;20157;-62
2022/07/05 04:06:13;;;;;;;4.22;2.60;;;12.60;99.90;;;;;;7336058;32;20111;-62
2022/07/05 04:10:19;;;;;;;5.57;2.17;;;12.50;99.90;;;;;;7338160;32;20658;-61
2022/07/05 04:14:20;;;;;;;3.50;2.47;;;12.60;99.90;;;;;;7337145;32;20159;-62
2022/07/05 04:18:23;;;;;;;5.50;2.40;;;12.60;99.90;;;;;;7332275;32;20100;-61
2022/07/05 04:22:25;;;;;;;2.50;2.20;;;12.60;99.90;;;;;;7340872;32;20194;-62
2022/07/05 04:26:27;;;;;;;3.05;2.00;;;12.70;99.90;;;;;;7351006;32;20483;-62
2022/07/05 04:30:29;;;;;;;6.10;2.47;;;12.80;99.90;;;;;;7338276;32;20102;-62
2022/07/05 04:34:30;;;;;;;2.28;1.90;;;12.80;99.90;;;;;;7345786;32;20722;-62
2022/07/05 04:38:32;;;;;;;6.25;2.72;;;12.90;99.90;;;;;;7342899;32;20248;-62
2022/07/05 04:42:34;;;;;;;3.92;2.20;;;13.20;99.90;;;;;;7344795;32;20183;-62
2022/07/05 04:46:36;;;;;;;5.50;2.78;;;13.40;99.90;;;;;;7339330;32;20841;-66
2022/07/05 04:50:38;;;;;;;4.95;2.10;;;13.50;99.90;;;;;;7338460;32;20264;-66
2022/07/05 04:54:39;;;;;;;4.05;2.22;;;13.90;99.90;;;;;;7342493;32;20628;-66
2022/07/05 04:58:41;;;;;;;2.65;1.85;;;14.30;99.90;;;;;;7338815;32;20184;-66
2022/07/05 05:02:43;;;;;;;4.95;1.90;;;14.70;99.90;;;;;;7341822;32;20153;-67
2022/07/05 05:06:45;;;;;;;5.60;1.90;;;15.20;99.90;;;;;;7341083;32;20135;-67
2022/07/05 05:10:46;;;;;;;5.03;1.87;;;15.70;99.90;;;;;;7338132;32;20156;-66
2022/07/05 05:14:49;;;;;;;4.00;1.90;;;16.20;99.90;;;;;;7338464;32;20103;-66
2022/07/05 05:18:51;;;;;;;3.20;1.73;;;16.70;99.90;;;;;;7342360;32;20111;-66
2022/07/05 05:22:52;;;;;;;6.80;2.10;;;17.20;99.90;;;;;;7337517;32;20202;-66
2022/07/05 05:26:54;;;;;;;4.43;2.25;;;17.70;99.90;;;;;;7341019;32;20664;-68
2022/07/05 05:30:56;;;;;;;7.57;2.35;;;17.60;99.90;;;;;;7331413;32;20222;-69
2022/07/05 05:34:58;;;;;;;4.18;2.25;;;17.20;99.90;;;;;;7331103;32;20510;-68
2022/07/05 05:39:00;;;;;;;3.17;2.25;;;16.70;99.90;;;;;;7340670;32;20185;-68
2022/07/05 05:43:01;;;;;;;6.15;2.30;;;16.50;99.90;;;;;;7339561;32;20099;-67
2022/07/05 05:47:04;;;;;;;8.13;2.60;;;16.40;99.90;;;;;;7339617;32;20162;-67
2022/07/05 05:51:05;;;;;;;7.80;2.58;;;16.30;99.90;;;;;;7338490;32;20125;-67
2022/07/05 05:55:08;;;;;;;5.22;2.12;;;16.30;99.90;;;;;;7340067;32;20122;-68
2022/07/05 05:59:09;;;;;;;5.55;2.90;;;16.30;99.90;;;;;;7341949;32;20163;-67
2022/07/05 06:03:11;;;;;;;5.18;2.10;;;16.40;99.90;;;;;;7332534;32;20145;-68
2022/07/05 06:07:13;;;;;;;5.85;2.05;;;16.60;99.90;;;;;;7333180;32;20167;-67
2022/07/05 06:11:15;;;;;;;56.78;38.80;;;16.60;99.90;;;;;;7335441;32;20262;-69
2022/07/05 06:15:17;;;;;;;5.60;2.78;;;16.90;99.90;;;;;;7336540;32;20177;-68
2022/07/05 06:19:19;;;;;;;3.95;2.20;;;17.10;99.90;;;;;;7341363;32;20096;-67
2022/07/05 06:23:21;;;;;;;8.02;4.28;;;17.30;99.90;;;;;;7337821;32;20230;-67
2022/07/05 06:27:22;;;;;;;4.22;1.85;;;17.70;99.90;;;;;;7336945;32;20199;-67
2022/07/05 06:31:24;;;;;;;2.85;1.75;;;17.70;99.90;;;;;;7333617;32;20288;-60
2022/07/05 06:35:27;;;;;;;8.10;1.90;;;17.90;99.90;;;;;;7340419;32;20103;-61
2022/07/05 06:39:29;;;;;;;7.70;1.90;;;18.10;99.90;;;;;;7336553;32;20540;-62
2022/07/05 06:43:31;;;;;;;3.90;1.60;;;18.30;99.90;;;;;;7336839;32;20179;-61
2022/07/05 06:47:33;;;;;;;2.60;1.12;;;18.40;99.90;;;;;;7345125;32;20214;-62
2022/07/05 06:51:35;;;;;;;3.33;1.30;;;18.70;99.90;;;;;;7342923;32;21385;-59
2022/07/05 06:55:37;;;;;;;4.18;1.20;;;19.00;99.90;;;;;;7338914;32;20202;-68
2022/07/05 06:59:38;;;;;;;4.43;1.30;;;19.20;99.90;;;;;;7341889;32;20104;-69
2022/07/05 07:04:00;;;;;;;4.55;1.60;;;19.30;99.90;;;;;;7345903;32;20116;-68
2022/07/05 07:12:42;;;;;;;4.53;2.00;;;19.30;99.90;;;;;;7341177;32;20223;-68
2022/07/05 07:16:44;;;;;;;3.97;1.90;;;19.20;99.90;;;;;;7342347;32;20176;-67
2022/07/05 07:20:47;;;;;;;3.33;1.80;;;19.20;99.90;;;;;;7333752;32;20119;-58
2022/07/05 07:24:48;;;;;;;4.82;2.03;;;19.20;99.90;;;;;;7341842;32;20684;-59
2022/07/05 07:28:50;;;;;;;3.80;1.62;;;19.10;99.90;;;;;;7339809;32;20179;-58
2022/07/05 07:32:52;;;;;;;5.12;2.03;;;19.10;99.90;;;;;;7351702;32;20135;-58
2022/07/05 07:36:55;;;;;;;3.70;1.60;;;19.10;99.90;;;;;;7335438;32;20199;-60
2022/07/05 07:40:57;;;;;;;3.70;1.52;;;19.20;99.90;;;;;;7340928;32;20210;-59
2022/07/05 07:45:03;;;;;;;4.32;1.92;;;19.30;99.90;;;;;;7340345;32;20208;-59
2022/07/05 07:49:13;;;;;;;5.12;2.40;;;19.30;99.90;;;;;;7339427;32;20228;-58
2022/07/05 07:53:15;;;;;;;6.75;2.83;;;19.50;99.90;;;;;;7346934;32;20194;-57
2022/07/05 07:57:17;;;;;;;12.48;5.87;;;19.60;99.90;;;;;;7342631;32;20457;-58
2022/07/05 08:01:19;;;;;;;14.23;5.03;;;19.80;99.90;;;;;;7339914;32;20158;-65
2022/07/05 08:05:21;;;;;;;8.63;3.05;;;20.00;99.90;;;;;;7340572;32;20170;-65
2022/07/05 08:09:22;;;;;;;9.18;4.12;;;20.20;99.90;;;;;;7344010;32;20235;-65
2022/07/05 08:13:24;;;;;;;7.40;2.40;;;20.30;99.90;;;;;;7337496;32;20119;-65
2022/07/05 08:17:26;;;;;;;5.62;2.00;;;20.70;99.90;;;;;;7345597;32;20180;-65
2022/07/05 08:21:31;;;;;;;4.65;2.00;;;20.80;99.90;;;;;;7342557;32;20554;-65
2022/07/05 08:25:33;;;;;;;5.78;2.00;;;21.00;99.90;;;;;;7341861;32;20198;-64
2022/07/05 08:29:35;;;;;;;5.72;1.98;;;21.20;99.90;;;;;;7346099;32;20198;-65
2022/07/05 08:33:37;;;;;;;3.83;2.00;;;21.50;99.90;;;;;;7343877;32;20337;-57
2022/07/05 08:37:39;;;;;;;5.53;1.70;;;21.10;99.90;;;;;;7333998;32;20656;-64
2022/07/05 08:41:48;;;;;;;4.20;1.17;;;20.80;99.90;;;;;;7344509;32;20107;-65
2022/07/05 08:45:51;;;;;;;7.40;1.75;;;21.40;99.90;;;;;;7337458;32;20164;-66
2022/07/05 08:49:55;;;;;;;4.47;1.55;;;21.30;99.90;;;;;;7344272;32;20131;-65
2022/07/05 08:53:57;;;;;;;3.67;1.40;;;21.40;99.90;;;;;;7346792;32;20126;-65
2022/07/05 08:58:00;;;;;;;4.50;1.30;;;21.50;99.90;;;;;;7338168;32;20206;-66
2022/07/05 09:02:02;;;;;;;6.32;1.48;;;21.40;99.90;;;;;;7339363;32;20108;-66
2022/07/05 09:06:08;;;;;;;3.00;1.27;;;21.40;99.90;;;;;;7343178;32;20168;-65
2022/07/05 09:10:11;;;;;;;4.90;1.50;;;21.20;99.90;;;;;;7338951;32;20092;-64
2022/07/05 09:14:23;;;;;;;3.67;0.75;;;21.30;99.90;;;;;;7335189;32;20096;-58
2022/07/05 09:18:54;;;;;;;1.80;1.27;;;21.90;99.90;;;;;;7337435;32;20203;-65
2022/07/05 09:22:56;;;;;;;3.97;1.25;;;22.30;99.90;;;;;;7337599;32;20880;-66
2022/07/05 09:27:05;;;;;;;2.75;1.30;;;22.90;99.90;;;;;;7335927;32;21607;-67
2022/07/05 09:31:32;;;;;;;3.47;1.10;;;23.90;99.90;;;;;;7341381;32;20103;-72
2022/07/05 09:35:41;;;;;;;4.23;0.87;;;24.10;99.90;;;;;;7340676;32;20112;-68
2022/07/05 09:39:43;;;;;;;3.03;0.98;;;23.40;99.90;;;;;;7344504;32;20773;-66
2022/07/05 09:43:46;;;;;;;5.65;0.93;;;22.80;99.70;;;;;;7332513;32;20442;-66
2022/07/05 09:47:48;;;;;;;1.75;0.80;;;22.30;99.90;;;;;;7343748;32;20300;-66
2022/07/05 09:52:11;;;;;;;3.15;1.00;;;22.90;99.90;;;;;;7344736;32;20131;-66
2022/07/05 09:56:13;;;;;;;3.00;0.80;;;23.10;99.00;;;;;;7340610;32;20159;-66
2022/07/05 10:00:18;;;;;;;2.50;0.95;;;22.70;98.40;;;;;;7340362;32;20221;-65
2022/07/05 10:04:20;;;;;;;3.20;1.10;;;22.50;97.70;;;;;;7341090;32;20108;-66
2022/07/05 10:08:22;;;;;;;2.75;1.15;;;22.20;97.60;;;;;;7348752;32;20697;-66
2022/07/05 10:12:24;;;;;;;3.08;1.00;;;22.20;99.30;;;;;;7335892;32;20108;-67
2022/07/05 10:16:26;;;;;;;3.40;1.00;;;22.80;99.90;;;;;;7345936;32;20255;-66
2022/07/05 10:20:41;;;;;;;4.57;1.00;;;23.70;94.10;;;;;;7340589;32;20102;-66
2022/07/05 10:24:44;;;;;;;2.22;0.82;;;23.30;93.80;;;;;;7340372;32;20108;-66
2022/07/05 10:28:50;;;;;;;6.07;0.80;;;23.20;95.90;;;;;;7332532;32;20249;-66
2022/07/05 10:32:52;;;;;;;2.05;0.62;;;23.20;94.60;;;;;;7350495;32;20156;-66
2022/07/05 10:36:53;;;;;;;1.60;0.82;;;23.50;95.40;;;;;;7347325;32;20119;-66
2022/07/05 10:41:01;;;;;;;4.10;0.93;;;24.30;93.10;;;;;;7338903;32;20647;-65
2022/07/05 10:45:21;;;;;;;2.10;1.10;;;24.40;92.10;;;;;;7340624;32;20180;-66
2022/07/05 10:49:22;;;;;;;1.40;0.73;;;24.20;88.20;;;;;;7339280;32;20192;-68
2022/07/05 10:53:30;;;;;;;2.90;1.10;;;23.50;93.50;;;;;;7344389;32;20115;-67
2022/07/05 10:57:32;;;;;;;2.55;1.08;;;23.00;93.90;;;;;;7341715;32;20214;-66
2022/07/05 11:01:36;;;;;;;4.22;1.02;;;22.60;93.80;;;;;;7343353;32;20099;-66
2022/07/05 11:05:38;;;;;;;6.70;1.20;;;22.20;95.00;;;;;;7347141;32;20186;-67
2022/07/05 11:10:02;;;;;;;4.97;0.98;;;22.90;99.00;;;;;;7338354;32;20577;-67
2022/07/05 11:14:29;;;;;;;2.53;1.00;;;23.50;95.00;;;;;;7343042;32;20118;-66
2022/07/05 11:18:31;;;;;;;3.30;1.08;;;23.70;92.80;;;;;;7342847;32;21046;-67
2022/07/05 11:22:35;;;;;;;6.45;0.98;;;24.30;91.40;;;;;;7342313;32;20557;-66
2022/07/05 11:26:37;;;;;;;2.37;1.10;;;24.60;90.90;;;;;;7345921;32;20433;-67
2022/07/05 11:30:53;;;;;;;3.55;1.00;;;24.70;87.40;;;;;;7345168;32;20201;-68
2022/07/05 11:35:18;;;;;;;2.20;1.20;;;24.80;89.50;;;;;;7339286;32;20335;-69
2022/07/05 11:39:20;;;;;;;1.42;1.10;;;23.50;90.00;;;;;;7340777;32;20198;-59
2022/07/05 11:43:30;;;;;;;3.33;1.10;;;23.40;92.80;;;;;;7344867;32;20192;-59
2022/07/05 11:47:33;;;;;;;3.10;1.00;;;23.60;91.10;;;;;;7335285;32;20226;-60
2022/07/05 11:51:52;;;;;;;4.03;1.00;;;23.80;92.10;;;;;;7335574;32;20131;-60
2022/07/05 11:55:57;;;;;;;3.47;1.00;;;23.80;88.60;;;;;;7344396;32;20610;-66
2022/07/05 11:59:59;;;;;;;4.10;1.00;;;23.80;90.70;;;;;;7337130;32;20233;-67
2022/07/05 12:04:01;;;;;;;4.55;1.12;;;24.40;86.50;;;;;;7344703;32;20526;-67
2022/07/05 12:08:03;;;;;;;2.15;1.10;;;24.30;88.20;;;;;;7339977;32;20500;-57
2022/07/05 12:16:25;;;;;;;2.47;1.05;;;24.30;90.50;;;;;;7342551;32;20229;-67
2022/07/05 12:20:28;;;;;;;3.33;0.98;;;24.20;87.40;;;;;;7341416;32;20108;-68
2022/07/05 12:24:29;;;;;;;2.80;0.90;;;24.00;86.70;;;;;;7342785;32;20222;-67
2022/07/05 12:28:31;;;;;;;2.53;0.68;;;24.00;85.50;;;;;;7339217;32;20269;-68
2022/07/05 12:32:34;;;;;;;1.37;0.90;;;24.20;86.00;;;;;;7346261;32;20212;-68
2022/07/05 12:36:42;;;;;;;2.72;0.90;;;24.00;85.40;;;;;;7346493;32;20707;-68
2022/07/05 12:40:49;;;;;;;7.22;1.02;;;24.10;87.90;;;;;;7333359;32;20475;-67
2022/07/05 12:45:10;;;;;;;1.90;0.90;;;24.00;85.80;;;;;;7345430;32;20114;-68
2022/07/05 12:49:12;;;;;;;2.95;0.93;;;24.60;83.80;;;;;;7343126;32;20111;-59
2022/07/05 13:01:56;;;;;;;6.07;1.10;;;24.50;79.60;;;;;;7343413;32;20444;-58
2022/07/05 13:06:02;;;;;;;2.85;0.80;;;24.60;78.00;;;;;;7338772;32;20237;-57
2022/07/05 13:10:24;;;;;;;2.20;0.80;;;24.70;79.20;;;;;;7341444;32;20149;-57
2022/07/05 13:14:26;;;;;;;4.35;1.00;;;24.80;82.30;;;;;;7340414;32;20226;-58
2022/07/05 13:18:27;;;;;;;1.67;0.70;;;24.90;81.60;;;;;;7333371;32;20275;-58
2022/07/05 13:22:29;;;;;;;8.30;1.00;;;25.70;75.50;;;;;;7345833;32;20123;-58
2022/07/05 13:26:31;;;;;;;2.92;1.10;;;25.50;75.70;;;;;;7345521;32;20161;-58
2022/07/05 13:30:33;;;;;;;2.83;0.90;;;25.00;76.20;;;;;;7344913;32;20100;-58
2022/07/05 13:34:35;;;;;;;2.80;1.10;;;24.70;80.70;;;;;;7339681;32;20765;-65
2022/07/05 13:38:37;;;;;;;4.25;1.02;;;24.50;77.60;;;;;;7338373;32;20157;-65
2022/07/05 13:42:38;;;;;;;2.10;1.00;;;24.30;79.90;;;;;;7334419;32;20096;-66
2022/07/05 13:46:40;;;;;;;1.70;0.82;;;24.30;81.00;;;;;;7338263;32;20736;-64
2022/07/05 13:50:42;;;;;;;7.15;0.98;;;24.00;83.60;;;;;;7335845;32;20118;-64
2022/07/05 13:54:44;;;;;;;4.45;1.00;;;23.70;87.10;;;;;;7338788;32;20127;-65
2022/07/05 13:58:46;;;;;;;5.45;1.30;;;23.80;84.60;;;;;;7338205;32;20258;-66
2022/07/05 14:02:47;;;;;;;2.33;0.90;;;23.60;84.50;;;;;;7343502;32;20184;-66
2022/07/05 14:06:50;;;;;;;3.62;1.40;;;23.60;89.30;;;;;;7342798;32;20159;-66
2022/07/05 14:10:54;;;;;;;3.35;1.00;;;24.20;85.20;;;;;;7341688;32;20194;-66
2022/07/05 14:14:55;;;;;;;3.10;1.42;;;24.80;79.50;;;;;;7336329;32;20283;-66
2022/07/05 14:18:57;;;;;;;2.87;1.20;;;24.30;83.00;;;;;;7342153;32;20095;-66
2022/07/05 14:22:59;;;;;;;3.22;1.00;;;23.60;87.20;;;;;;7341445;32;20095;-66
2022/07/05 14:27:01;;;;;;;3.62;1.37;;;23.30;88.40;;;;;;7338113;32;20218;-63
2022/07/05 14:31:03;;;;;;;4.32;1.25;;;23.10;88.80;;;;;;7329279;32;20187;-61
2022/07/05 14:35:05;;;;;;;6.20;1.10;;;23.00;89.00;;;;;;7337979;32;20359;-63
2022/07/05 14:39:07;;;;;;;5.32;1.55;;;22.60;88.50;;;;;;7333580;32;20556;-65
2022/07/05 14:43:09;;;;;;;5.97;1.70;;;22.30;91.70;;;;;;7347970;32;20103;-63
2022/07/05 14:47:11;;;;;;;6.97;1.70;;;22.00;92.70;;;;;;7340575;32;20189;-62
2022/07/05 14:51:13;;;;;;;6.07;1.35;;;21.80;94.20;;;;;;7334606;32;20243;-57
2022/07/05 14:55:16;;;;;;;4.97;1.10;;;21.70;95.80;;;;;;7338903;32;20179;-58
2022/07/05 14:59:18;;;;;;;4.87;1.20;;;21.60;96.60;;;;;;7333850;32;20112;-65
2022/07/05 15:03:19;;;;;;;4.87;1.30;;;22.10;96.80;;;;;;7340219;32;20137;-65
2022/07/05 15:07:22;;;;;;;2.33;1.20;;;22.60;95.30;;;;;;7336064;32;20103;-65
2022/07/05 15:11:24;;;;;;;4.28;1.65;;;22.90;96.40;;;;;;7335825;32;20135;-66
2022/07/05 15:15:26;;;;;;;6.15;1.70;;;23.30;96.00;;;;;;7341409;32;20235;-65
2022/07/05 15:19:27;;;;;;;7.43;2.20;;;23.80;93.20;;;;;;7343360;32;20151;-66
2022/07/05 15:23:29;;;;;;;5.65;1.60;;;23.70;92.20;;;;;;7340260;32;20126;-66
2022/07/05 15:27:32;;;;;;;7.05;1.73;;;23.50;94.50;;;;;;7340800;32;20103;-60
2022/07/05 15:31:36;;;;;;;7.35;1.70;;;23.30;93.10;;;;;;7347067;32;20108;-58
2022/07/05 15:35:38;;;;;;;6.72;1.90;;;22.90;92.50;;;;;;7340897;32;20103;-67
2022/07/05 15:39:39;;;;;;;2.55;1.50;;;22.30;93.20;;;;;;7335020;32;20734;-58
2022/07/05 15:43:41;;;;;;;4.60;1.20;;;22.10;94.20;;;;;;7340745;32;20676;-58
2022/07/05 15:47:43;;;;;;;5.18;1.60;;;21.70;95.80;;;;;;7344530;32;20225;-67
2022/07/05 15:51:45;;;;;;;4.20;1.75;;;21.50;96.80;;;;;;7338606;32;20516;-66
2022/07/05 15:55:47;;;;;;;7.65;1.75;;;21.40;97.50;;;;;;7343256;32;20107;-64
2022/07/05 15:59:49;;;;;;;3.83;1.52;;;21.30;97.80;;;;;;7348076;32;20202;-60
2022/07/05 16:03:50;;;;;;;6.60;1.70;;;21.30;98.80;;;;;;7342480;32;20252;-60
2022/07/05 16:07:52;;;;;;;2.03;1.65;;;21.20;98.90;;;;;;7346602;32;20242;-60
2022/07/05 16:11:54;;;;;;;5.05;1.50;;;21.20;99.90;;;;;;7336087;32;20116;-59
2022/07/05 16:16:11;;;;;;;7.60;1.60;;;21.20;99.90;;;;;;7341279;32;20194;-61
2022/07/05 16:20:13;;;;;;;;;;;21.40;99.90;;;;;;7346002;32;20225;-67
2022/07/05 16:24:16;;;;;;;3.33;1.70;;;21.60;99.70;;;;;;7348977;32;20063;-67
2022/07/05 16:28:19;;;;;;;8.80;1.98;;;21.70;99.90;;;;;;7337994;32;20271;-66
2022/07/05 16:32:20;;;;;;;3.95;1.55;;;21.80;99.70;;;;;;7337084;32;20881;-66
2022/07/05 16:36:23;;;;;;;4.68;1.65;;;21.80;99.50;;;;;;7343427;32;20118;-66
2022/07/05 16:40:25;;;;;;;7.37;1.77;;;22.00;99.00;;;;;;7339632;32;20484;-67
2022/07/05 16:44:27;;;;;;;3.62;1.70;;;21.90;99.20;;;;;;7346453;32;20253;-69
2022/07/05 16:48:29;;;;;;;5.05;1.80;;;21.80;98.20;;;;;;7341883;32;20107;-67
2022/07/05 16:52:31;;;;;;;3.92;1.48;;;21.60;98.80;;;;;;7346148;32;20552;-67
2022/07/05 16:56:33;;;;;;;4.85;2.28;;;21.60;99.60;;;;;;7341727;32;20222;-67
2022/07/05 17:00:35;;;;;;;4.65;1.40;;;21.40;99.90;;;;;;7346221;32;20714;-67
2022/07/05 17:04:37;;;;;;;3.17;1.30;;;21.30;99.90;;;;;;7346267;32;20194;-67
2022/07/05 17:08:40;;;;;;;6.60;3.12;;;21.20;99.90;;;;;;7337197;32;20133;-66
2022/07/05 17:12:42;;;;;;;3.37;1.00;;;21.10;99.90;;;;;;7342143;32;20108;-67
2022/07/05 17:16:44;;;;;;;2.20;0.95;;;20.90;99.90;;;;;;7340203;32;20254;-67
2022/07/05 17:20:46;;;;;;;3.53;1.17;;;20.80;99.90;;;;;;7346548;32;20170;-68
2022/07/05 17:24:48;;;;;;;2.67;1.00;;;20.70;99.90;;;;;;7340626;32;20099;-68
2022/07/05 17:28:52;;;;;;;2.20;0.93;;;20.50;99.90;;;;;;7343224;32;20241;-65
2022/07/05 17:32:54;;;;;;;5.00;1.25;;;20.40;99.90;;;;;;7340897;32;20137;-68
2022/07/05 17:37:00;;;;;;;1.77;0.88;;;20.40;99.90;;;;;;7341466;32;20150;-67
2022/07/05 17:41:04;;;;;;;5.78;0.90;;;20.40;99.90;;;;;;7341705;32;20103;-67
2022/07/05 17:45:07;;;;;;;6.05;1.00;;;20.50;99.90;;;;;;7336310;32;20563;-69
2022/07/05 17:49:09;;;;;;;2.70;0.75;;;20.50;99.90;;;;;;7344646;32;20179;-69
2022/07/05 17:53:11;;;;;;;5.72;1.02;;;20.50;99.90;;;;;;7342565;32;20815;-70
2022/07/05 17:57:13;;;;;;;4.25;0.88;;;20.30;99.90;;;;;;7343147;32;20103;-68
2022/07/05 18:01:16;;;;;;;2.78;1.00;;;20.20;99.90;;;;;;7337921;32;20108;-69
2022/07/05 18:05:19;;;;;;;4.07;0.90;;;20.00;99.90;;;;;;7338835;32;20875;-69
2022/07/05 18:09:21;;;;;;;2.50;1.00;;;19.90;99.90;;;;;;7339077;32;20095;-68
2022/07/05 18:13:22;;;;;;;3.25;0.88;;;19.80;99.90;;;;;;7334561;32;20211;-69
2022/07/05 18:17:25;;;;;;;2.20;0.80;;;19.70;99.90;;;;;;7336354;32;20259;-69
2022/07/05 18:21:28;;;;;;;1.77;0.60;;;19.70;99.90;;;;;;7343933;32;20155;-69
2022/07/05 18:25:29;;;;;;;4.68;1.85;;;19.70;99.90;;;;;;7334352;32;20222;-68
2022/07/05 18:29:32;;;;;;;2.50;0.75;;;19.70;99.90;;;;;;7339311;32;20099;-68
2022/07/05 18:33:34;;;;;;;3.08;0.88;;;19.70;99.90;;;;;;7338720;32;20535;-68
2022/07/05 18:37:37;;;;;;;2.67;0.70;;;19.60;99.90;;;;;;7338304;32;20220;-69
2022/07/05 18:41:39;;;;;;;5.32;0.90;;;19.60;99.90;;;;;;7340300;32;20174;-69
2022/07/05 18:45:41;;;;;;;1.90;0.90;;;19.40;99.90;;;;;;7341219;32;20150;-68
2022/07/05 18:49:42;;;;;;;1.40;0.60;;;19.40;99.90;;;;;;7337255;32;20107;-67
2022/07/05 18:53:59;;;;;;;6.20;4.00;;;19.40;99.90;;;;;;7341036;32;20190;-69
2022/07/05 18:58:01;;;;;;;1.53;0.60;;;19.30;99.90;;;;;;7346374;32;20215;-66
2022/07/05 19:02:03;;;;;;;2.15;0.90;;;19.30;99.90;;;;;;7338183;32;20267;-67
2022/07/05 19:13:40;;;;;;;1.40;0.80;;;19.20;99.90;;;;;;7335018;32;20195;-67
2022/07/05 19:15:03;;;;;;;2.58;0.80;;;19.10;99.90;;;;;;7341353;32;20141;-66
2022/07/05 19:19:05;;;;;;;2.00;0.80;;;19.00;99.90;;;;;;7342647;32;20135;-67
2022/07/05 19:23:09;;;;;;;4.47;0.82;;;18.90;99.90;;;;;;7344592;32;20259;-66
2022/07/05 19:27:11;;;;;;;1.58;0.70;;;18.70;99.90;;;;;;7343867;32;20890;-66
2022/07/05 19:31:13;;;;;;;1.33;0.80;;;18.70;99.90;;;;;;7343568;32;21003;-67
2022/07/05 19:35:28;;;;;;;1.40;0.70;;;18.60;99.90;;;;;;7347776;32;20111;-68
2022/07/05 19:39:31;;;;;;;2.15;0.73;;;18.60;99.90;;;;;;7343812;32;20803;-69
2022/07/05 19:43:32;;;;;;;2.00;1.00;;;18.50;99.90;;;;;;7344770;32;20199;-68
2022/07/05 19:47:36;;;;;;;2.33;0.80;;;18.60;99.90;;;;;;7344804;32;20468;-70
2022/07/05 19:51:38;;;;;;;1.83;0.80;;;18.50;99.90;;;;;;7346511;32;20176;-70
2022/07/05 19:55:40;;;;;;;2.37;0.60;;;18.30;99.90;;;;;;7345591;32;20218;-70
2022/07/05 19:59:48;;;;;;;1.87;0.70;;;18.20;99.90;;;;;;7342431;32;20099;-69
2022/07/05 20:03:49;;;;;;;1.30;0.52;;;18.20;99.90;;;;;;7343143;32;20130;-64
2022/07/05 20:07:51;;;;;;;3.90;0.85;;;18.10;99.90;;;;;;7346244;32;20701;-63
2022/07/05 20:11:53;;;;;;;2.05;0.60;;;18.00;99.90;;;;;;7337490;32;20178;-65
2022/07/05 20:16:04;;;;;;;2.67;0.95;;;18.10;99.90;;;;;;7341134;32;20807;-64
2022/07/05 20:20:06;;;;;;;1.30;0.50;;;17.90;99.90;;;;;;7343861;32;20713;-64
2022/07/05 20:24:08;;;;;;;3.92;0.68;;;17.90;99.90;;;;;;7342871;32;20188;-64
2022/07/05 20:28:10;;;;;;;2.08;0.50;;;17.80;99.90;;;;;;7340961;32;20172;-65
2022/07/05 20:32:12;;;;;;;2.15;0.62;;;17.70;99.90;;;;;;7339778;32;20103;-64
2022/07/05 20:36:14;;;;;;;4.78;0.80;;;17.60;99.90;;;;;;7354098;32;20126;-64
2022/07/05 20:40:15;;;;;;;1.70;0.80;;;17.70;99.90;;;;;;7338765;32;20139;-63
2022/07/05 20:44:18;;;;;;;2.17;0.90;;;17.60;99.90;;;;;;7343025;32;20298;-65
2022/07/05 20:48:22;;;;;;;3.25;1.20;;;17.50;99.90;;;;;;7341028;32;20218;-65
2022/07/05 20:52:31;;;;;;;4.07;1.17;;;17.40;99.90;;;;;;7340273;32;20746;-63
2022/07/05 20:56:33;;;;;;;1.10;0.70;;;17.40;99.90;;;;;;7338814;32;20199;-64
2022/07/05 21:00:34;;;;;;;8.10;1.20;;;17.30;99.90;;;;;;7335625;32;20274;-64
2022/07/05 21:04:36;;;;;;;3.72;1.17;;;17.40;99.90;;;;;;7338059;32;20160;-66
2022/07/05 21:08:38;;;;;;;2.87;1.00;;;17.30;99.90;;;;;;7334825;32;20744;-65
2022/07/05 21:12:40;;;;;;;5.00;1.02;;;17.30;99.90;;;;;;7342919;32;20815;-64
2022/07/05 21:16:42;;;;;;;1.58;0.93;;;17.10;99.90;;;;;;7341951;32;20123;-63
2022/07/05 21:20:44;;;;;;;3.05;1.20;;;17.00;99.90;;;;;;7341041;32;20760;-64
2022/07/05 21:24:45;;;;;;;3.35;1.00;;;16.90;99.90;;;;;;7339204;32;20214;-63
2022/07/05 21:28:47;;;;;;;3.92;0.90;;;16.80;99.90;;;;;;7332910;32;20274;-63
2022/07/05 21:32:48;;;;;;;4.55;1.20;;;16.70;99.90;;;;;;7339412;32;20316;-63